Portada
METAR-TAF:

METAR-TAF

Aeroports :

Djanet, Algèria

latitud: 24-33N, longitud: 009-28E, altitud: 1054 m

Observació

L'informe es va fer fa 18 minuts, a les 11:00 UTC
Vent 4 kt del Sud
Temperatura 20°C
Humitat 19%
Pressió 1020 hPa
Visibilitat 10 km o més
sense núvols per sota de 1500 mi sense presència de cumulonimbus.

METAR: DAAJ 261100Z 19004KT CAVOK 20/M04 Q1020

Hora: 12:18 (11:18 UTC)

Pronòstic

L'informe es va fer fa 6 hores i 18 minuts, a les 05:00 UTC
Pronòstic vàlid del 26 a les 06 UTC al 27 a les 06 UTC
Vent 2 kt amb direcció variable
Visibilitat 10 km o més
sense núvols per sota de 1500 mi sense presència de cumulonimbus.
Temporalment
l' 26 a les 11 UTC al 26 a les 15 UTC
Vent 10 kt del Sud-Oest

TAF: DAAJ 260500Z 2606/2706 VRB02KT CAVOK TEMPO 2611/2615 22010KT

Observacions i pronòstics meteorològics de més de 4000 aeroports (METAR i TAF).

Les estacions disponibles són els punts grocs i vermells al mapa.

Posi el ratolí al punt desitjat per veure el nom de l'estació.

Feu clic per veure les observacions i els pronòstics meteorològics.

Per canviar el mapa: feu clic els botons verds amb una creu de color negre per apropar; al botó verd amb un guió per allunyar la imatge; o en les fletxes verdes per a mapes adjacents.


METAR-TAF: